EIN562 EIDW-LEBL
Flight info
| Callsign | EIN562 |
|---|---|
| Flight time | 1h 59m |
| Altitude | 35000 |
| Route | PESIT2J PESIT DCT BAKUR DCT GUBJE DCT GISOK DCT TACQI DCT MANIG DCT KORER UM616 LUGEN/N0375F250 UM616 TUPAR DCT CNA DCT SECHE DCT AGN DCT TOU DCT LOMRA DCT ROCAN DCT PUMAL |
| Aircraft | A320/M-SDE3FGHIRWY/LB1 |
Departure
| Time | 2026-05-06 19:42 |
|---|---|
| Airport | Dublin Airport (EIDW) |
Arrival
| Time | 2026-05-06 21:41 |
|---|---|
| Airport | Josep Tarradellas Barcelona-El Prat Airport (LEBL) |
| Time | Latitude | Longitude | Altitude | Speed | Heading |
|---|---|---|---|---|---|
| 2026-05-06 19:28 | 53.43019 | -6.25073 | 211 ft | 0 kts | 5° |
| 2026-05-06 19:31 | 53.42979 | -6.25071 | 211 ft | 4 kts | 341° |
| 2026-05-06 19:32 | 53.42958 | -6.25050 | 213 ft | 4 kts | 295° |
| 2026-05-06 19:32 | 53.42954 | -6.25030 | 213 ft | 1 kts | 275° |
| 2026-05-06 19:32 | 53.42954 | -6.25028 | 211 ft | 0 kts | 275° |
| 2026-05-06 19:34 | 53.42958 | -6.25093 | 219 ft | 14 kts | 275° |
| 2026-05-06 19:34 | 53.42980 | -6.25259 | 213 ft | 14 kts | 317° |
| 2026-05-06 19:34 | 53.43057 | -6.25326 | 211 ft | 12 kts | 336° |
| 2026-05-06 19:35 | 53.43127 | -6.25376 | 213 ft | 10 kts | 336° |
| 2026-05-06 19:35 | 53.43180 | -6.25434 | 211 ft | 9 kts | 303° |
| 2026-05-06 19:35 | 53.43197 | -6.25518 | 212 ft | 7 kts | 301° |
| 2026-05-06 19:35 | 53.43230 | -6.25560 | 215 ft | 5 kts | 336° |
| 2026-05-06 19:36 | 53.43260 | -6.25581 | 216 ft | 4 kts | 338° |
| 2026-05-06 19:36 | 53.43292 | -6.25605 | 211 ft | 11 kts | 333° |
| 2026-05-06 19:36 | 53.43349 | -6.25646 | 215 ft | 0 kts | 336° |
| 2026-05-06 19:37 | 53.43363 | -6.25656 | 214 ft | 3 kts | 336° |
| 2026-05-06 19:37 | 53.43391 | -6.25736 | 213 ft | 15 kts | 259° |
| 2026-05-06 19:37 | 53.43321 | -6.25926 | 210 ft | 22 kts | 195° |
| 2026-05-06 19:37 | 53.43254 | -6.25869 | 212 ft | 15 kts | 161° |
| 2026-05-06 19:38 | 53.43132 | -6.25760 | 211 ft | 15 kts | 116° |
| 2026-05-06 19:38 | 53.43156 | -6.25597 | 212 ft | 16 kts | 64° |
| 2026-05-06 19:38 | 53.43239 | -6.25566 | 213 ft | 13 kts | 338° |
| 2026-05-06 19:38 | 53.43318 | -6.25625 | 214 ft | 13 kts | 335° |
| 2026-05-06 19:39 | 53.43401 | -6.25619 | 216 ft | 12 kts | 47° |
| 2026-05-06 19:39 | 53.43406 | -6.25495 | 211 ft | 11 kts | 96° |
| 2026-05-06 19:39 | 53.43395 | -6.25308 | 211 ft | 19 kts | 95° |
| 2026-05-06 19:39 | 53.43383 | -6.25080 | 211 ft | 22 kts | 95° |
| 2026-05-06 19:40 | 53.43366 | -6.24787 | 214 ft | 26 kts | 96° |
| 2026-05-06 19:40 | 53.43375 | -6.24583 | 211 ft | 14 kts | 32° |
| 2026-05-06 19:40 | 53.43459 | -6.24548 | 215 ft | 11 kts | 2° |
| 2026-05-06 19:40 | 53.43504 | -6.24551 | 213 ft | 9 kts | 346° |
| 2026-05-06 19:41 | 53.43534 | -6.24751 | 215 ft | 46 kts | 275° |
| 2026-05-06 19:41 | 53.43585 | -6.25705 | 209 ft | 114 kts | 275° |
| 2026-05-06 19:41 | 53.43670 | -6.27345 | 220 ft | 165 kts | 273° |
| 2026-05-06 19:41 | 53.43794 | -6.29264 | 783 ft | 164 kts | 279° |
| 2026-05-06 19:42 | 53.44382 | -6.30887 | 1363 ft | 167 kts | 318° |
| 2026-05-06 19:42 | 53.45280 | -6.32265 | 1764 ft | 185 kts | 311° |
| 2026-05-06 19:42 | 53.46144 | -6.34037 | 2016 ft | 207 kts | 305° |
| 2026-05-06 19:42 | 53.47032 | -6.36061 | 2374 ft | 224 kts | 304° |
| 2026-05-06 19:43 | 53.47970 | -6.38321 | 2684 ft | 248 kts | 302° |
| 2026-05-06 19:43 | 53.48970 | -6.40764 | 3352 ft | 257 kts | 302° |
| 2026-05-06 19:43 | 53.49995 | -6.43248 | 4213 ft | 260 kts | 303° |
| 2026-05-06 19:43 | 53.50903 | -6.45821 | 5082 ft | 259 kts | 285° |
| 2026-05-06 19:44 | 53.50942 | -6.48791 | 5891 ft | 259 kts | 251° |
| 2026-05-06 19:44 | 53.49930 | -6.51249 | 6701 ft | 261 kts | 217° |
| 2026-05-06 19:44 | 53.48227 | -6.52290 | 7431 ft | 269 kts | 183° |
| 2026-05-06 19:44 | 53.46346 | -6.51911 | 8184 ft | 276 kts | 169° |
| 2026-05-06 19:45 | 53.44474 | -6.51098 | 8941 ft | 281 kts | 166° |
| 2026-05-06 19:45 | 53.42580 | -6.50161 | 9704 ft | 285 kts | 165° |
| 2026-05-06 19:45 | 53.40653 | -6.49229 | 10276 ft | 296 kts | 166° |
| 2026-05-06 19:45 | 53.38586 | -6.48304 | 10459 ft | 319 kts | 167° |
| 2026-05-06 19:46 | 53.36355 | -6.47384 | 10597 ft | 342 kts | 168° |
| 2026-05-06 19:46 | 53.33960 | -6.46457 | 10739 ft | 363 kts | 169° |
| 2026-05-06 19:46 | 53.31486 | -6.45406 | 11183 ft | 372 kts | 163° |
| 2026-05-06 19:46 | 53.29051 | -6.43761 | 11700 ft | 381 kts | 157° |
| 2026-05-06 19:47 | 53.26623 | -6.41894 | 12221 ft | 387 kts | 157° |
| 2026-05-06 19:47 | 53.24159 | -6.39986 | 12746 ft | 393 kts | 157° |
| 2026-05-06 19:47 | 53.21658 | -6.38043 | 13286 ft | 398 kts | 157° |
| 2026-05-06 19:47 | 53.19164 | -6.36103 | 13815 ft | 403 kts | 157° |
| 2026-05-06 19:48 | 53.16571 | -6.34092 | 14312 ft | 408 kts | 157° |
| 2026-05-06 19:48 | 53.13988 | -6.32100 | 14916 ft | 409 kts | 157° |
| 2026-05-06 19:48 | 53.11430 | -6.30136 | 15539 ft | 409 kts | 157° |
| 2026-05-06 19:48 | 53.08834 | -6.28146 | 16181 ft | 409 kts | 157° |
| 2026-05-06 19:49 | 53.06246 | -6.26165 | 16832 ft | 409 kts | 157° |
| 2026-05-06 19:49 | 53.03656 | -6.24180 | 17502 ft | 409 kts | 157° |
| 2026-05-06 19:49 | 53.01075 | -6.22200 | 18181 ft | 409 kts | 157° |
| 2026-05-06 19:49 | 52.98494 | -6.20220 | 18787 ft | 408 kts | 157° |
| 2026-05-06 19:50 | 52.95919 | -6.18245 | 19399 ft | 407 kts | 156° |
| 2026-05-06 19:50 | 52.93345 | -6.16277 | 20022 ft | 406 kts | 156° |
| 2026-05-06 19:50 | 52.90781 | -6.14318 | 20647 ft | 405 kts | 156° |
| 2026-05-06 19:50 | 52.88258 | -6.12387 | 21287 ft | 404 kts | 156° |
| 2026-05-06 19:51 | 52.85713 | -6.10429 | 21947 ft | 402 kts | 155° |
| 2026-05-06 19:51 | 52.83182 | -6.08476 | 22571 ft | 402 kts | 155° |
| 2026-05-06 19:51 | 52.80616 | -6.06506 | 22824 ft | 410 kts | 155° |
| 2026-05-06 19:51 | 52.77998 | -6.04503 | 23126 ft | 418 kts | 155° |
| 2026-05-06 19:52 | 52.75335 | -6.02470 | 23413 ft | 424 kts | 155° |
| 2026-05-06 19:52 | 52.72641 | -6.00418 | 23674 ft | 430 kts | 155° |
| 2026-05-06 19:52 | 52.69900 | -5.98333 | 23912 ft | 435 kts | 155° |
| 2026-05-06 19:52 | 52.67169 | -5.96257 | 24147 ft | 439 kts | 155° |
| 2026-05-06 19:53 | 52.64382 | -5.94143 | 24397 ft | 443 kts | 155° |
| 2026-05-06 19:53 | 52.61576 | -5.92019 | 24746 ft | 443 kts | 155° |
| 2026-05-06 19:53 | 52.58770 | -5.89897 | 25113 ft | 444 kts | 155° |
| 2026-05-06 19:53 | 52.55963 | -5.87773 | 25481 ft | 444 kts | 155° |
| 2026-05-06 19:54 | 52.53155 | -5.85650 | 25858 ft | 444 kts | 155° |
| 2026-05-06 19:54 | 52.50341 | -5.83525 | 26236 ft | 444 kts | 155° |
| 2026-05-06 19:54 | 52.47529 | -5.81403 | 26624 ft | 444 kts | 155° |
| 2026-05-06 19:54 | 52.44718 | -5.79289 | 27011 ft | 444 kts | 155° |
| 2026-05-06 19:55 | 52.41905 | -5.77179 | 27405 ft | 444 kts | 155° |
| 2026-05-06 19:55 | 52.39043 | -5.75270 | 27812 ft | 444 kts | 161° |
| 2026-05-06 19:55 | 52.36117 | -5.73825 | 28215 ft | 444 kts | 163° |
| 2026-05-06 19:55 | 52.33152 | -5.72388 | 28630 ft | 443 kts | 162° |
| 2026-05-06 19:56 | 52.30185 | -5.70949 | 29050 ft | 442 kts | 162° |
| 2026-05-06 19:56 | 52.27238 | -5.69517 | 29476 ft | 441 kts | 162° |
| 2026-05-06 19:56 | 52.24301 | -5.68051 | 29909 ft | 440 kts | 159° |
| 2026-05-06 19:56 | 52.21500 | -5.66224 | 30298 ft | 438 kts | 156° |
| 2026-05-06 19:57 | 52.18657 | -5.64295 | 30677 ft | 437 kts | 156° |
| 2026-05-06 19:57 | 52.15882 | -5.62425 | 31044 ft | 436 kts | 156° |
| 2026-05-06 19:57 | 52.13087 | -5.60552 | 31425 ft | 434 kts | 156° |
| 2026-05-06 19:57 | 52.10292 | -5.58686 | 31812 ft | 432 kts | 156° |
| 2026-05-06 19:58 | 52.07513 | -5.56828 | 32204 ft | 431 kts | 156° |
| 2026-05-06 19:58 | 52.04760 | -5.54983 | 32708 ft | 426 kts | 156° |
| 2026-05-06 19:58 | 52.02060 | -5.53088 | 33239 ft | 420 kts | 154° |
| 2026-05-06 19:58 | 51.99424 | -5.51071 | 33610 ft | 418 kts | 152° |
| 2026-05-06 19:59 | 51.96815 | -5.48968 | 33890 ft | 419 kts | 151° |
| 2026-05-06 19:59 | 51.94218 | -5.46837 | 34142 ft | 418 kts | 151° |
| 2026-05-06 19:59 | 51.91615 | -5.44706 | 34321 ft | 420 kts | 152° |
| 2026-05-06 19:59 | 51.89016 | -5.42534 | 34484 ft | 421 kts | 146° |
| 2026-05-06 20:00 | 51.86594 | -5.39863 | 34658 ft | 422 kts | 143° |
| 2026-05-06 20:00 | 51.84190 | -5.37133 | 34819 ft | 423 kts | 143° |
| 2026-05-06 20:00 | 51.81780 | -5.34386 | 34981 ft | 425 kts | 143° |
| 2026-05-06 20:00 | 51.79349 | -5.31614 | 35025 ft | 430 kts | 144° |
| 2026-05-06 20:01 | 51.74384 | -5.25974 | 35015 ft | 441 kts | 144° |
| 2026-05-06 20:01 | 51.69287 | -5.20221 | 35020 ft | 452 kts | 144° |
| 2026-05-06 20:02 | 51.64118 | -5.14382 | 35016 ft | 461 kts | 144° |
| 2026-05-06 20:02 | 51.58820 | -5.08417 | 35023 ft | 468 kts | 144° |
| 2026-05-06 20:03 | 51.53447 | -5.02390 | 35017 ft | 473 kts | 144° |
| 2026-05-06 20:03 | 51.48030 | -4.96340 | 35004 ft | 474 kts | 144° |
| 2026-05-06 20:04 | 51.42600 | -4.90300 | 35008 ft | 475 kts | 146° |
| 2026-05-06 20:04 | 51.37168 | -4.84269 | 35014 ft | 475 kts | 146° |
| 2026-05-06 20:05 | 51.31737 | -4.78255 | 35023 ft | 475 kts | 146° |
| 2026-05-06 20:05 | 51.26307 | -4.72255 | 35009 ft | 475 kts | 146° |
| 2026-05-06 20:06 | 51.20876 | -4.66253 | 35003 ft | 475 kts | 146° |
| 2026-05-06 20:06 | 51.15442 | -4.60272 | 35010 ft | 475 kts | 146° |
| 2026-05-06 20:07 | 51.09996 | -4.54308 | 35012 ft | 475 kts | 147° |
| 2026-05-06 20:07 | 51.04582 | -4.48407 | 35013 ft | 475 kts | 147° |
| 2026-05-06 20:08 | 50.99061 | -4.42647 | 35016 ft | 474 kts | 149° |
| 2026-05-06 20:08 | 50.93445 | -4.37130 | 35007 ft | 474 kts | 149° |
| 2026-05-06 20:09 | 50.87815 | -4.31647 | 35023 ft | 474 kts | 149° |
| 2026-05-06 20:09 | 50.82217 | -4.26108 | 35022 ft | 475 kts | 149° |
| 2026-05-06 20:10 | 50.76631 | -4.20553 | 35020 ft | 474 kts | 149° |
| 2026-05-06 20:10 | 50.71035 | -4.15022 | 35022 ft | 474 kts | 149° |
| 2026-05-06 20:11 | 50.65431 | -4.09521 | 35018 ft | 474 kts | 149° |
| 2026-05-06 20:11 | 50.59873 | -4.04069 | 35022 ft | 474 kts | 149° |
| 2026-05-06 20:12 | 50.54244 | -3.98553 | 35013 ft | 473 kts | 149° |
| 2026-05-06 20:12 | 50.48686 | -3.93128 | 35018 ft | 473 kts | 149° |
| 2026-05-06 20:13 | 50.43087 | -3.87680 | 35020 ft | 473 kts | 149° |
| 2026-05-06 20:13 | 50.37487 | -3.82240 | 35021 ft | 473 kts | 149° |
| 2026-05-06 20:14 | 50.31877 | -3.76824 | 35017 ft | 473 kts | 150° |
| 2026-05-06 20:14 | 50.26263 | -3.71408 | 35019 ft | 473 kts | 150° |
| 2026-05-06 20:15 | 50.20659 | -3.66008 | 35025 ft | 473 kts | 150° |
| 2026-05-06 20:15 | 50.15050 | -3.60626 | 35026 ft | 473 kts | 150° |
| 2026-05-06 20:16 | 50.09477 | -3.55291 | 35019 ft | 473 kts | 150° |
| 2026-05-06 20:16 | 50.03868 | -3.49937 | 35023 ft | 473 kts | 150° |
| 2026-05-06 20:17 | 49.98251 | -3.44593 | 35026 ft | 473 kts | 150° |
| 2026-05-06 20:17 | 49.92633 | -3.39265 | 35025 ft | 473 kts | 150° |
| 2026-05-06 20:18 | 49.87012 | -3.33951 | 35021 ft | 473 kts | 150° |
| 2026-05-06 20:18 | 49.81432 | -3.28689 | 35020 ft | 472 kts | 151° |
| 2026-05-06 20:19 | 49.75424 | -3.24748 | 35017 ft | 467 kts | 168° |
| 2026-05-06 20:19 | 49.69103 | -3.22397 | 35004 ft | 467 kts | 168° |
| 2026-05-06 20:20 | 49.62777 | -3.20042 | 35007 ft | 468 kts | 168° |
| 2026-05-06 20:20 | 49.56445 | -3.17672 | 35007 ft | 468 kts | 168° |
| 2026-05-06 20:21 | 49.50105 | -3.15304 | 35011 ft | 468 kts | 168° |
| 2026-05-06 20:21 | 49.43817 | -3.12955 | 35008 ft | 468 kts | 168° |
| 2026-05-06 20:22 | 49.37478 | -3.10602 | 35011 ft | 468 kts | 168° |
| 2026-05-06 20:22 | 49.31138 | -3.08260 | 35011 ft | 469 kts | 168° |
| 2026-05-06 20:23 | 49.24952 | -3.05104 | 35007 ft | 470 kts | 159° |
| 2026-05-06 20:23 | 49.18871 | -3.01404 | 35006 ft | 470 kts | 160° |
| 2026-05-06 20:24 | 49.12790 | -2.97695 | 35007 ft | 470 kts | 159° |
| 2026-05-06 20:24 | 49.06718 | -2.93971 | 35011 ft | 471 kts | 159° |
| 2026-05-06 20:25 | 49.00640 | -2.90259 | 35001 ft | 471 kts | 159° |
| 2026-05-06 20:25 | 48.94583 | -2.86580 | 35006 ft | 471 kts | 159° |
| 2026-05-06 20:26 | 48.88497 | -2.82898 | 35014 ft | 471 kts | 159° |
| 2026-05-06 20:26 | 48.82410 | -2.79218 | 35012 ft | 470 kts | 159° |
| 2026-05-06 20:27 | 48.76322 | -2.75555 | 35009 ft | 470 kts | 159° |
| 2026-05-06 20:27 | 48.70233 | -2.71887 | 35003 ft | 470 kts | 159° |
| 2026-05-06 20:28 | 48.64147 | -2.68234 | 35003 ft | 471 kts | 160° |
| 2026-05-06 20:28 | 48.58085 | -2.64614 | 35011 ft | 471 kts | 159° |
| 2026-05-06 20:29 | 48.51992 | -2.60982 | 35005 ft | 471 kts | 159° |
| 2026-05-06 20:29 | 48.45884 | -2.57337 | 35006 ft | 471 kts | 159° |
| 2026-05-06 20:30 | 48.36779 | -2.51933 | 35008 ft | 471 kts | 160° |
| 2026-05-06 20:31 | 48.30778 | -2.47960 | 35006 ft | 472 kts | 152° |
| 2026-05-06 20:31 | 48.26019 | -2.43928 | 35000 ft | 472 kts | 151° |
| 2026-05-06 20:32 | 48.19342 | -2.38259 | 35001 ft | 472 kts | 151° |
| 2026-05-06 20:32 | 48.14582 | -2.34219 | 34993 ft | 472 kts | 151° |
| 2026-05-06 20:33 | 48.08902 | -2.29407 | 34998 ft | 472 kts | 151° |
| 2026-05-06 20:33 | 48.03176 | -2.24551 | 34990 ft | 472 kts | 151° |
| 2026-05-06 20:34 | 47.97452 | -2.19738 | 34989 ft | 472 kts | 152° |
| 2026-05-06 20:34 | 47.91722 | -2.14941 | 34984 ft | 472 kts | 152° |
| 2026-05-06 20:35 | 47.85994 | -2.10144 | 34991 ft | 472 kts | 151° |
| 2026-05-06 20:35 | 47.80260 | -2.05348 | 34988 ft | 472 kts | 152° |
| 2026-05-06 20:36 | 47.74525 | -2.00566 | 34984 ft | 472 kts | 152° |
| 2026-05-06 20:36 | 47.68825 | -1.95826 | 34981 ft | 473 kts | 152° |
| 2026-05-06 20:37 | 47.63077 | -1.91053 | 34984 ft | 473 kts | 152° |
| 2026-05-06 20:37 | 47.57332 | -1.86302 | 34981 ft | 473 kts | 152° |
| 2026-05-06 20:38 | 47.51606 | -1.81503 | 34972 ft | 474 kts | 146° |
| 2026-05-06 20:38 | 47.49124 | -1.78313 | 34972 ft | 474 kts | 133° |
| 2026-05-06 20:38 | 47.46942 | -1.74660 | 34974 ft | 474 kts | 131° |
| 2026-05-06 20:39 | 47.42138 | -1.68079 | 34972 ft | 472 kts | 151° |
| 2026-05-06 20:39 | 47.36383 | -1.63393 | 34969 ft | 473 kts | 152° |
| 2026-05-06 20:40 | 47.30623 | -1.58783 | 34974 ft | 474 kts | 152° |
| 2026-05-06 20:40 | 47.24813 | -1.54136 | 34983 ft | 475 kts | 152° |
| 2026-05-06 20:41 | 47.19001 | -1.49481 | 34985 ft | 475 kts | 152° |
| 2026-05-06 20:41 | 47.13180 | -1.44826 | 34978 ft | 476 kts | 152° |
| 2026-05-06 20:42 | 47.07359 | -1.40178 | 34967 ft | 476 kts | 152° |
| 2026-05-06 20:42 | 47.01530 | -1.35542 | 34984 ft | 477 kts | 152° |
| 2026-05-06 20:43 | 46.95727 | -1.30950 | 34988 ft | 477 kts | 152° |
| 2026-05-06 20:43 | 46.89884 | -1.26340 | 34992 ft | 477 kts | 152° |
| 2026-05-06 20:44 | 46.84036 | -1.21727 | 34999 ft | 477 kts | 152° |
| 2026-05-06 20:44 | 46.78187 | -1.17116 | 35002 ft | 477 kts | 152° |
| 2026-05-06 20:45 | 46.72370 | -1.12549 | 35005 ft | 477 kts | 152° |
| 2026-05-06 20:45 | 46.66516 | -1.07970 | 35006 ft | 477 kts | 152° |
| 2026-05-06 20:46 | 46.60655 | -1.03399 | 35006 ft | 477 kts | 152° |
| 2026-05-06 20:46 | 46.54791 | -0.98825 | 35002 ft | 477 kts | 152° |
| 2026-05-06 20:47 | 46.48962 | -0.94292 | 35004 ft | 477 kts | 152° |
| 2026-05-06 20:47 | 46.43106 | -0.89752 | 35004 ft | 477 kts | 152° |
| 2026-05-06 20:48 | 46.37251 | -0.85222 | 35004 ft | 477 kts | 152° |
| 2026-05-06 20:48 | 46.31381 | -0.80702 | 34998 ft | 477 kts | 152° |
| 2026-05-06 20:49 | 46.25519 | -0.76185 | 35000 ft | 477 kts | 153° |
| 2026-05-06 20:49 | 46.19655 | -0.71670 | 35000 ft | 477 kts | 153° |
| 2026-05-06 20:50 | 46.13787 | -0.67179 | 34989 ft | 478 kts | 153° |
| 2026-05-06 20:50 | 46.07911 | -0.62700 | 34983 ft | 478 kts | 153° |
| 2026-05-06 20:51 | 46.02069 | -0.58259 | 34981 ft | 478 kts | 153° |
| 2026-05-06 20:51 | 45.96191 | -0.53790 | 34979 ft | 478 kts | 153° |
| 2026-05-06 20:52 | 45.90303 | -0.49312 | 34976 ft | 478 kts | 153° |
| 2026-05-06 20:52 | 45.84409 | -0.44845 | 34972 ft | 478 kts | 153° |
| 2026-05-06 20:53 | 45.78518 | -0.40402 | 34972 ft | 478 kts | 153° |
| 2026-05-06 20:53 | 45.72627 | -0.35967 | 34969 ft | 478 kts | 153° |
| 2026-05-06 20:54 | 45.66768 | -0.31573 | 34999 ft | 478 kts | 153° |
| 2026-05-06 20:54 | 45.60867 | -0.27144 | 34999 ft | 478 kts | 153° |
| 2026-05-06 20:55 | 45.54957 | -0.22728 | 34988 ft | 478 kts | 153° |
| 2026-05-06 20:55 | 45.49055 | -0.18347 | 34984 ft | 478 kts | 153° |
| 2026-05-06 20:56 | 45.43190 | -0.13981 | 34980 ft | 478 kts | 153° |
| 2026-05-06 20:56 | 45.37290 | -0.09597 | 34976 ft | 478 kts | 154° |
| 2026-05-06 20:57 | 45.31385 | -0.05218 | 34972 ft | 478 kts | 154° |
| 2026-05-06 20:57 | 45.25478 | -0.00848 | 34985 ft | 478 kts | 154° |
| 2026-05-06 20:58 | 45.19572 | 0.03504 | 34976 ft | 479 kts | 154° |
| 2026-05-06 20:58 | 45.13653 | 0.07842 | 34966 ft | 479 kts | 154° |
| 2026-05-06 20:59 | 45.07763 | 0.12160 | 34966 ft | 479 kts | 154° |
| 2026-05-06 20:59 | 45.01848 | 0.16496 | 34970 ft | 479 kts | 154° |
| 2026-05-06 21:00 | 44.95917 | 0.20841 | 34971 ft | 479 kts | 154° |
| 2026-05-06 21:00 | 44.90030 | 0.25125 | 34983 ft | 479 kts | 154° |
| 2026-05-06 21:01 | 44.84102 | 0.29435 | 34991 ft | 479 kts | 155° |
| 2026-05-06 21:01 | 44.78164 | 0.33729 | 34993 ft | 479 kts | 155° |
| 2026-05-06 21:02 | 44.72228 | 0.38012 | 34994 ft | 479 kts | 155° |
| 2026-05-06 21:02 | 44.66288 | 0.42315 | 34987 ft | 480 kts | 154° |
| 2026-05-06 21:03 | 44.60339 | 0.46611 | 34976 ft | 480 kts | 155° |
| 2026-05-06 21:03 | 44.54425 | 0.50852 | 34979 ft | 480 kts | 155° |
| 2026-05-06 21:04 | 44.48461 | 0.55123 | 34983 ft | 481 kts | 155° |
| 2026-05-06 21:04 | 44.42504 | 0.59380 | 34987 ft | 481 kts | 155° |
| 2026-05-06 21:05 | 44.36545 | 0.63633 | 34984 ft | 481 kts | 155° |
| 2026-05-06 21:05 | 44.30582 | 0.67877 | 34991 ft | 481 kts | 155° |
| 2026-05-06 21:06 | 44.24614 | 0.72112 | 35022 ft | 481 kts | 155° |
| 2026-05-06 21:06 | 44.18640 | 0.76335 | 35014 ft | 480 kts | 156° |
| 2026-05-06 21:07 | 44.12678 | 0.80553 | 35021 ft | 480 kts | 155° |
| 2026-05-06 21:07 | 44.06719 | 0.84766 | 35017 ft | 480 kts | 156° |
| 2026-05-06 21:08 | 44.00792 | 0.88928 | 34996 ft | 480 kts | 156° |
| 2026-05-06 21:08 | 43.94832 | 0.93107 | 34998 ft | 480 kts | 156° |
| 2026-05-06 21:09 | 43.88872 | 0.97289 | 35002 ft | 480 kts | 156° |
| 2026-05-06 21:09 | 43.82911 | 1.01457 | 35009 ft | 480 kts | 156° |
| 2026-05-06 21:10 | 43.76940 | 1.05617 | 35009 ft | 479 kts | 156° |
| 2026-05-06 21:10 | 43.70981 | 1.09765 | 35020 ft | 479 kts | 156° |
| 2026-05-06 21:11 | 43.65066 | 1.13882 | 35025 ft | 479 kts | 156° |
| 2026-05-06 21:11 | 43.59096 | 1.18016 | 35005 ft | 479 kts | 157° |
| 2026-05-06 21:12 | 43.53143 | 1.22129 | 35011 ft | 478 kts | 157° |
| 2026-05-06 21:12 | 43.50163 | 1.24184 | 34781 ft | 479 kts | 157° |
| 2026-05-06 21:12 | 43.47184 | 1.26238 | 34428 ft | 479 kts | 157° |
| 2026-05-06 21:12 | 43.44206 | 1.28293 | 34078 ft | 479 kts | 157° |
| 2026-05-06 21:13 | 43.41223 | 1.30347 | 33509 ft | 479 kts | 158° |
| 2026-05-06 21:13 | 43.38272 | 1.32374 | 32974 ft | 479 kts | 158° |
| 2026-05-06 21:13 | 43.35244 | 1.34450 | 32423 ft | 480 kts | 158° |
| 2026-05-06 21:13 | 43.32291 | 1.36475 | 31924 ft | 482 kts | 157° |
| 2026-05-06 21:14 | 43.29286 | 1.38535 | 31407 ft | 483 kts | 157° |
| 2026-05-06 21:14 | 43.26279 | 1.40595 | 30903 ft | 484 kts | 157° |
| 2026-05-06 21:14 | 43.23257 | 1.42660 | 30412 ft | 486 kts | 156° |
| 2026-05-06 21:14 | 43.20226 | 1.44730 | 29875 ft | 487 kts | 156° |
| 2026-05-06 21:15 | 43.17190 | 1.46802 | 29302 ft | 488 kts | 156° |
| 2026-05-06 21:15 | 43.14142 | 1.48878 | 28739 ft | 489 kts | 156° |
| 2026-05-06 21:15 | 43.11086 | 1.50959 | 28184 ft | 491 kts | 156° |
| 2026-05-06 21:15 | 43.08024 | 1.53040 | 27651 ft | 492 kts | 156° |
| 2026-05-06 21:16 | 43.04950 | 1.55126 | 27112 ft | 494 kts | 156° |
| 2026-05-06 21:16 | 43.01865 | 1.57214 | 26595 ft | 494 kts | 156° |
| 2026-05-06 21:16 | 42.98783 | 1.59299 | 26065 ft | 492 kts | 156° |
| 2026-05-06 21:16 | 42.95734 | 1.61363 | 25565 ft | 488 kts | 156° |
| 2026-05-06 21:17 | 42.92691 | 1.63419 | 25070 ft | 488 kts | 156° |
| 2026-05-06 21:17 | 42.89642 | 1.65473 | 24586 ft | 491 kts | 156° |
| 2026-05-06 21:17 | 42.86608 | 1.67511 | 24112 ft | 492 kts | 156° |
| 2026-05-06 21:17 | 42.83545 | 1.69568 | 23636 ft | 484 kts | 155° |
| 2026-05-06 21:18 | 42.80569 | 1.71571 | 23093 ft | 471 kts | 155° |
| 2026-05-06 21:18 | 42.77670 | 1.73527 | 22541 ft | 460 kts | 155° |
| 2026-05-06 21:18 | 42.74827 | 1.75439 | 22008 ft | 450 kts | 155° |
| 2026-05-06 21:18 | 42.72041 | 1.77309 | 21468 ft | 442 kts | 155° |
| 2026-05-06 21:19 | 42.69299 | 1.79144 | 20956 ft | 435 kts | 156° |
| 2026-05-06 21:19 | 42.66602 | 1.80947 | 20443 ft | 428 kts | 156° |
| 2026-05-06 21:19 | 42.63947 | 1.82723 | 19940 ft | 422 kts | 156° |
| 2026-05-06 21:19 | 42.61323 | 1.84477 | 19424 ft | 418 kts | 156° |
| 2026-05-06 21:20 | 42.58750 | 1.86190 | 18817 ft | 417 kts | 156° |
| 2026-05-06 21:20 | 42.56990 | 1.87359 | 18413 ft | 416 kts | 156° |
| 2026-05-06 21:20 | 42.53561 | 1.89638 | 17530 ft | 414 kts | 156° |
| 2026-05-06 21:20 | 42.50977 | 1.91357 | 16865 ft | 412 kts | 156° |
| 2026-05-06 21:21 | 42.48409 | 1.93068 | 16215 ft | 410 kts | 156° |
| 2026-05-06 21:21 | 42.46683 | 1.94217 | 15785 ft | 408 kts | 156° |
| 2026-05-06 21:21 | 42.44138 | 1.95909 | 15160 ft | 407 kts | 156° |
| 2026-05-06 21:21 | 42.41636 | 1.97574 | 14549 ft | 405 kts | 156° |
| 2026-05-06 21:22 | 42.39117 | 1.99244 | 13950 ft | 402 kts | 156° |
| 2026-05-06 21:22 | 42.36624 | 2.00944 | 13278 ft | 400 kts | 152° |
| 2026-05-06 21:22 | 42.34277 | 2.02949 | 12621 ft | 397 kts | 149° |
| 2026-05-06 21:22 | 42.31978 | 2.04955 | 12209 ft | 388 kts | 149° |
| 2026-05-06 21:23 | 42.29743 | 2.06899 | 11821 ft | 378 kts | 149° |
| 2026-05-06 21:23 | 42.27555 | 2.08801 | 11445 ft | 368 kts | 149° |
| 2026-05-06 21:23 | 42.25428 | 2.10653 | 11064 ft | 360 kts | 149° |
| 2026-05-06 21:23 | 42.23335 | 2.12476 | 10698 ft | 355 kts | 149° |
| 2026-05-06 21:24 | 42.21267 | 2.14275 | 10328 ft | 352 kts | 149° |
| 2026-05-06 21:24 | 42.19213 | 2.16056 | 10036 ft | 350 kts | 149° |
| 2026-05-06 21:24 | 42.17166 | 2.17829 | 9883 ft | 350 kts | 148° |
| 2026-05-06 21:24 | 42.15119 | 2.19600 | 9615 ft | 349 kts | 148° |
| 2026-05-06 21:25 | 42.13083 | 2.21364 | 9351 ft | 347 kts | 148° |
| 2026-05-06 21:25 | 42.11056 | 2.23116 | 9106 ft | 345 kts | 149° |
| 2026-05-06 21:25 | 42.09037 | 2.24857 | 9002 ft | 344 kts | 149° |
| 2026-05-06 21:25 | 42.07040 | 2.26581 | 9022 ft | 344 kts | 148° |
| 2026-05-06 21:26 | 42.05023 | 2.28323 | 9020 ft | 345 kts | 148° |
| 2026-05-06 21:26 | 42.03004 | 2.30065 | 9023 ft | 345 kts | 149° |
| 2026-05-06 21:26 | 42.00982 | 2.31808 | 9024 ft | 345 kts | 149° |
| 2026-05-06 21:26 | 41.98957 | 2.33551 | 9025 ft | 345 kts | 149° |
| 2026-05-06 21:27 | 41.96934 | 2.35292 | 8969 ft | 346 kts | 149° |
| 2026-05-06 21:27 | 41.94914 | 2.37029 | 8696 ft | 344 kts | 148° |
| 2026-05-06 21:27 | 41.92898 | 2.38763 | 8438 ft | 343 kts | 148° |
| 2026-05-06 21:27 | 41.90892 | 2.40487 | 8179 ft | 342 kts | 148° |
| 2026-05-06 21:28 | 41.88892 | 2.42206 | 8010 ft | 341 kts | 148° |
| 2026-05-06 21:28 | 41.86899 | 2.43912 | 8017 ft | 340 kts | 149° |
| 2026-05-06 21:28 | 41.84901 | 2.45619 | 8023 ft | 341 kts | 149° |
| 2026-05-06 21:28 | 41.82904 | 2.47326 | 8022 ft | 336 kts | 148° |
| 2026-05-06 21:29 | 41.80996 | 2.48960 | 8021 ft | 315 kts | 149° |
| 2026-05-06 21:29 | 41.79204 | 2.50497 | 8022 ft | 297 kts | 149° |
| 2026-05-06 21:29 | 41.77497 | 2.51961 | 7919 ft | 289 kts | 149° |
| 2026-05-06 21:29 | 41.75818 | 2.53397 | 7669 ft | 285 kts | 149° |
| 2026-05-06 21:30 | 41.74153 | 2.54821 | 7413 ft | 284 kts | 149° |
| 2026-05-06 21:30 | 41.72508 | 2.56225 | 7168 ft | 283 kts | 149° |
| 2026-05-06 21:30 | 41.70851 | 2.57635 | 6923 ft | 282 kts | 149° |
| 2026-05-06 21:30 | 41.69201 | 2.59039 | 6680 ft | 281 kts | 149° |
| 2026-05-06 21:31 | 41.67552 | 2.60444 | 6439 ft | 280 kts | 149° |
| 2026-05-06 21:31 | 41.65794 | 2.61483 | 6173 ft | 275 kts | 169° |
| 2026-05-06 21:31 | 41.63909 | 2.61629 | 5917 ft | 270 kts | 189° |
| 2026-05-06 21:31 | 41.62133 | 2.60904 | 5660 ft | 266 kts | 209° |
| 2026-05-06 21:32 | 41.60656 | 2.59455 | 5409 ft | 262 kts | 223° |
| 2026-05-06 21:32 | 41.58028 | 2.56286 | 4873 ft | 248 kts | 222° |
| 2026-05-06 21:32 | 41.56754 | 2.54757 | 4534 ft | 244 kts | 221° |
| 2026-05-06 21:33 | 41.55500 | 2.53255 | 4208 ft | 241 kts | 221° |
| 2026-05-06 21:33 | 41.54258 | 2.51769 | 3845 ft | 239 kts | 221° |
| 2026-05-06 21:33 | 41.53014 | 2.50280 | 3416 ft | 241 kts | 221° |
| 2026-05-06 21:33 | 41.51762 | 2.48781 | 2979 ft | 242 kts | 221° |
| 2026-05-06 21:34 | 41.50511 | 2.47288 | 2681 ft | 238 kts | 221° |
| 2026-05-06 21:34 | 41.49296 | 2.45838 | 2450 ft | 230 kts | 221° |
| 2026-05-06 21:34 | 41.48142 | 2.44460 | 2322 ft | 219 kts | 221° |
| 2026-05-06 21:34 | 41.47047 | 2.43152 | 2300 ft | 203 kts | 221° |
| 2026-05-06 21:35 | 41.46020 | 2.41928 | 2319 ft | 196 kts | 221° |
| 2026-05-06 21:35 | 41.45001 | 2.40714 | 2328 ft | 195 kts | 221° |
| 2026-05-06 21:35 | 41.43990 | 2.39513 | 2326 ft | 194 kts | 220° |
| 2026-05-06 21:35 | 41.42984 | 2.38319 | 2302 ft | 194 kts | 221° |
| 2026-05-06 21:36 | 41.41970 | 2.37113 | 2307 ft | 198 kts | 221° |
| 2026-05-06 21:36 | 41.40942 | 2.35886 | 2304 ft | 198 kts | 221° |
| 2026-05-06 21:36 | 41.39924 | 2.34670 | 2305 ft | 196 kts | 221° |
| 2026-05-06 21:36 | 41.38913 | 2.33466 | 2305 ft | 194 kts | 221° |
| 2026-05-06 21:37 | 41.38014 | 2.32126 | 2304 ft | 196 kts | 237° |
| 2026-05-06 21:37 | 41.37419 | 2.30493 | 2315 ft | 196 kts | 244° |
| 2026-05-06 21:37 | 41.36859 | 2.28834 | 2323 ft | 196 kts | 244° |
| 2026-05-06 21:37 | 41.36295 | 2.27172 | 2305 ft | 196 kts | 244° |
| 2026-05-06 21:38 | 41.35769 | 2.25621 | 2296 ft | 171 kts | 244° |
| 2026-05-06 21:38 | 41.35301 | 2.24242 | 2226 ft | 154 kts | 244° |
| 2026-05-06 21:38 | 41.34875 | 2.22991 | 2068 ft | 149 kts | 244° |
| 2026-05-06 21:38 | 41.34455 | 2.21758 | 1887 ft | 147 kts | 244° |
| 2026-05-06 21:39 | 41.34031 | 2.20516 | 1699 ft | 147 kts | 244° |
| 2026-05-06 21:39 | 41.33608 | 2.19274 | 1485 ft | 147 kts | 244° |
| 2026-05-06 21:39 | 41.33187 | 2.18037 | 1292 ft | 147 kts | 244° |
| 2026-05-06 21:39 | 41.32765 | 2.16799 | 1094 ft | 146 kts | 245° |
| 2026-05-06 21:40 | 41.32351 | 2.15585 | 903 ft | 143 kts | 245° |
| 2026-05-06 21:40 | 41.31941 | 2.14384 | 706 ft | 142 kts | 245° |
| 2026-05-06 21:40 | 41.31531 | 2.13186 | 519 ft | 142 kts | 246° |
| 2026-05-06 21:40 | 41.31121 | 2.11983 | 328 ft | 143 kts | 246° |
| 2026-05-06 21:41 | 41.30712 | 2.10787 | 139 ft | 142 kts | 246° |
| 2026-05-06 21:41 | 41.30310 | 2.09613 | 16 ft | 129 kts | 245° |
| 2026-05-06 21:41 | 41.30014 | 2.08740 | 19 ft | 78 kts | 246° |
| 2026-05-06 21:41 | 41.29859 | 2.08288 | 20 ft | 29 kts | 245° |
| 2026-05-06 21:42 | 41.29785 | 2.08074 | 17 ft | 26 kts | 244° |
| 2026-05-06 21:42 | 41.29662 | 2.07898 | 17 ft | 26 kts | 225° |
| 2026-05-06 21:42 | 41.29522 | 2.07755 | 18 ft | 25 kts | 218° |
| 2026-05-06 21:42 | 41.29430 | 2.07691 | 22 ft | 11 kts | 180° |
| 2026-05-06 21:43 | 41.29364 | 2.07726 | 18 ft | 10 kts | 154° |
| 2026-05-06 21:43 | 41.29307 | 2.07763 | 18 ft | 9 kts | 154° |
| 2026-05-06 21:43 | 41.29254 | 2.07795 | 18 ft | 8 kts | 156° |
| 2026-05-06 21:43 | 41.29214 | 2.07842 | 18 ft | 12 kts | 103° |
| 2026-05-06 21:44 | 41.29219 | 2.07902 | 20 ft | 1 kts | 95° |
| 2026-05-06 21:44 | 41.29192 | 2.07921 | 19 ft | 6 kts | 148° |
| 2026-05-06 21:44 | 41.29158 | 2.07943 | 18 ft | 5 kts | 156° |
| 2026-05-06 21:44 | 41.29144 | 2.07951 | 20 ft | 0 kts | 155° |